createdAt,value
2018-09-18T00:02:53.102Z,20.08
2018-09-18T00:05:21.923Z,20.07
2018-09-18T00:07:50.736Z,19.97
2018-09-18T00:10:19.876Z,19.87
2018-09-18T00:12:48.677Z,19.95
2018-09-18T00:15:17.482Z,20.07
2018-09-18T00:17:46.363Z,19.86
2018-09-18T00:20:15.176Z,19.83
2018-09-18T00:22:44.009Z,19.91
2018-09-18T00:25:13.174Z,20.05
2018-09-18T00:27:42.023Z,19.93
2018-09-18T00:30:10.832Z,19.83
2018-09-18T00:32:40.639Z,19.63
2018-09-18T00:35:09.414Z,19.63
2018-09-18T00:37:38.212Z,19.54
2018-09-18T00:40:07.351Z,19.55
2018-09-18T00:42:36.152Z,19.58
2018-09-18T00:45:05.064Z,19.57
2018-09-18T00:47:33.916Z,19.55
2018-09-18T00:50:02.737Z,19.64
2018-09-18T00:52:31.551Z,19.73
2018-09-18T00:55:00.647Z,19.92
2018-09-18T00:57:29.465Z,20.08
2018-09-18T00:59:58.296Z,20.21
2018-09-18T01:02:27.499Z,20.43
2018-09-18T01:04:56.356Z,20.37
2018-09-18T01:07:25.213Z,20.38
2018-09-18T01:09:54.354Z,20.44
2018-09-18T01:12:23.104Z,20.42
2018-09-18T01:14:51.923Z,20.42
2018-09-18T01:17:20.753Z,20.62
2018-09-18T01:19:49.591Z,20.47
2018-09-18T01:22:18.368Z,20.49
2018-09-18T01:24:47.518Z,20.60
2018-09-18T01:27:16.321Z,20.48
2018-09-18T01:29:45.092Z,20.17
2018-09-18T01:32:14.258Z,20.10
2018-09-18T01:34:43.091Z,20.13
2018-09-18T01:37:11.886Z,20.04
2018-09-18T01:39:40.735Z,19.96
2018-09-18T01:42:09.535Z,19.79
2018-09-18T01:44:38.375Z,19.94
2018-09-18T01:47:07.582Z,20.04
2018-09-18T01:49:36.445Z,20.14
2018-09-18T01:52:05.346Z,20.19
2018-09-18T01:54:34.163Z,20.20
2018-09-18T01:57:03.028Z,20.16
2018-09-18T01:59:31.944Z,20.13
2018-09-18T02:02:01.100Z,20.11
2018-09-18T02:04:29.906Z,20.13
2018-09-18T02:06:58.732Z,20.14
2018-09-18T02:09:27.936Z,20.31
2018-09-18T02:11:56.823Z,20.17
2018-09-18T02:14:25.700Z,20.13
2018-09-18T02:16:54.597Z,20.15
2018-09-18T02:19:23.388Z,20.20
2018-09-18T02:21:52.222Z,20.17
2018-09-18T02:24:21.409Z,20.19
2018-09-18T02:26:50.235Z,20.11
2018-09-18T02:29:19.028Z,20.03
2018-09-18T02:31:48.148Z,19.94
2018-09-18T02:34:16.970Z,20.03
2018-09-18T02:36:45.797Z,20.06
2018-09-18T02:39:14.631Z,20.10
2018-09-18T02:41:43.886Z,19.94
2018-09-18T02:44:12.730Z,19.87
2018-09-18T02:46:42.083Z,19.94
2018-09-18T02:49:10.899Z,19.74
2018-09-18T02:51:39.786Z,19.69
2018-09-18T02:54:08.660Z,19.62
2018-09-18T02:56:37.494Z,19.80
2018-09-18T02:59:06.357Z,19.94
2018-09-18T03:01:35.476Z,19.87
2018-09-18T03:04:04.351Z,19.82
2018-09-18T03:06:33.188Z,19.72
2018-09-18T03:09:02.064Z,19.69
2018-09-18T03:11:31.019Z,19.86
2018-09-18T03:13:59.713Z,19.83
2018-09-18T03:16:28.871Z,19.86
2018-09-18T03:18:57.711Z,19.91
2018-09-18T03:21:26.567Z,19.78
2018-09-18T03:23:55.426Z,19.69
2018-09-18T03:26:24.253Z,19.62
2018-09-18T03:28:53.078Z,19.75
2018-09-18T03:31:22.260Z,19.61
2018-09-18T03:33:51.133Z,19.73
2018-09-18T03:36:19.992Z,19.59
2018-09-18T03:38:48.897Z,19.61
2018-09-18T03:41:17.771Z,19.46
2018-09-18T03:43:46.609Z,19.45
2018-09-18T03:46:15.833Z,19.52
2018-09-18T03:48:44.605Z,19.39
2018-09-18T03:51:13.440Z,19.26
2018-09-18T03:53:42.312Z,19.19
2018-09-18T03:56:11.110Z,19.23
2018-09-18T03:58:39.914Z,19.23
2018-09-18T04:01:09.341Z,19.12
2018-09-18T04:03:38.180Z,19.13
2018-09-18T04:06:07.069Z,19.08
2018-09-18T04:08:35.969Z,19.13
2018-09-18T04:11:04.842Z,18.96
2018-09-18T04:13:33.633Z,18.99
2018-09-18T04:16:02.503Z,19.19
2018-09-18T04:18:31.378Z,19.23
2018-09-18T04:21:00.262Z,19.11
2018-09-18T04:23:29.480Z,19.20
2018-09-18T04:25:58.323Z,19.18
2018-09-18T04:28:27.177Z,19.24
2018-09-18T04:30:56.055Z,19.39
2018-09-18T04:33:24.864Z,19.37
2018-09-18T04:35:53.735Z,19.44
2018-09-18T04:38:22.849Z,19.44
2018-09-18T04:40:51.661Z,19.46
2018-09-18T04:43:20.491Z,19.49
2018-09-18T04:45:49.410Z,19.53
2018-09-18T04:48:18.213Z,19.53
2018-09-18T04:50:47.079Z,19.59
2018-09-18T04:53:16.320Z,19.54
2018-09-18T04:55:45.157Z,19.49
2018-09-18T04:58:13.957Z,19.54
2018-09-18T05:00:42.860Z,19.53
2018-09-18T05:03:11.670Z,19.62
2018-09-18T05:05:40.515Z,19.71
2018-09-18T05:08:09.349Z,19.78
2018-09-18T05:10:38.167Z,19.87
2018-09-18T05:13:07.034Z,19.76
2018-09-18T05:15:35.981Z,19.84
2018-09-18T05:18:04.837Z,19.73
2018-09-18T05:20:33.667Z,19.72
2018-09-18T05:23:02.937Z,19.67
2018-09-18T05:25:31.798Z,19.77
2018-09-18T05:28:00.580Z,19.70
2018-09-18T05:30:29.443Z,19.71
2018-09-18T05:32:58.240Z,19.74
2018-09-18T05:35:27.029Z,19.76
2018-09-18T05:37:55.951Z,19.73
2018-09-18T05:40:24.785Z,19.92
2018-09-18T05:42:53.612Z,20.05
2018-09-18T05:45:22.784Z,20.42
2018-09-18T05:47:51.611Z,20.62
2018-09-18T05:50:20.404Z,20.93
2018-09-18T05:52:49.592Z,20.10
2018-09-18T05:57:46.070Z,20.24
2018-09-18T06:00:15.355Z,20.99
2018-09-18T06:02:44.166Z,20.36
2018-09-18T06:05:12.999Z,20.60
2018-09-18T06:07:41.855Z,20.94
2018-09-18T06:10:10.700Z,20.62
2018-09-18T06:12:39.526Z,20.67
2018-09-18T06:15:08.662Z,20.98
2018-09-18T06:17:37.465Z,20.83
2018-09-18T06:20:06.280Z,21.26
2018-09-18T06:22:35.165Z,21.07
2018-09-18T06:25:04.007Z,21.29
2018-09-18T06:27:32.857Z,20.89
2018-09-18T06:30:01.692Z,21.35
2018-09-18T06:32:30.494Z,20.77
2018-09-18T06:34:59.358Z,21.09
2018-09-18T06:37:28.169Z,21.21
2018-09-18T06:39:57.000Z,20.75
2018-09-18T06:42:25.878Z,21.06
2018-09-18T06:44:54.700Z,21.26
2018-09-18T06:47:23.504Z,21.06
2018-09-18T06:49:52.306Z,20.68
2018-09-18T06:52:21.405Z,21.27
2018-09-18T06:54:50.244Z,21.17
2018-09-18T06:57:19.115Z,20.98
2018-09-18T06:59:47.981Z,21.46
2018-09-18T07:02:16.773Z,21.21
2018-09-18T07:04:45.620Z,21.23
2018-09-18T07:07:14.903Z,21.01
2018-09-18T07:09:43.752Z,21.79
2018-09-18T07:12:12.582Z,21.84
2018-09-18T07:14:41.472Z,21.52
2018-09-18T07:27:23.418Z,22.50
2018-09-18T07:33:10.557Z,22.73
2018-09-18T07:35:47.549Z,23.14
2018-09-18T07:39:00.662Z,23.11
2018-09-18T07:41:48.182Z,22.47
2018-09-18T07:44:30.493Z,22.75
2018-09-18T07:47:00.504Z,22.47
2018-09-18T07:49:29.500Z,22.74
2018-09-18T07:51:58.433Z,23.22
2018-09-18T07:54:27.448Z,22.89
2018-09-18T07:56:56.734Z,23.12
2018-09-18T07:59:28.345Z,22.95
2018-09-18T08:01:57.624Z,22.80
2018-09-18T08:04:27.992Z,23.04
2018-09-18T08:06:59.081Z,23.06
2018-09-18T08:09:30.328Z,23.45
2018-09-18T08:12:00.188Z,23.71
2018-09-18T08:14:29.735Z,23.52
2018-09-18T08:16:58.997Z,23.32
2018-09-18T08:19:57.841Z,23.17
2018-09-18T08:22:29.111Z,23.16
2018-09-18T08:25:00.128Z,23.35
2018-09-18T08:27:31.206Z,23.49
2018-09-18T08:30:07.148Z,23.50
2018-09-18T08:32:50.616Z,24.20
2018-09-18T08:35:23.246Z,24.32
2018-09-18T08:40:52.439Z,24.56
2018-09-18T08:43:21.308Z,23.79
2018-09-18T08:45:50.408Z,24.87
2018-09-18T08:48:19.322Z,24.68
2018-09-18T08:50:48.167Z,24.73
2018-09-18T08:53:17.072Z,25.06
2018-09-18T08:55:45.970Z,25.13
2018-09-18T08:58:14.816Z,24.61
2018-09-18T09:00:43.782Z,24.78
2018-09-18T09:03:12.629Z,25.31
2018-09-18T09:05:41.492Z,24.89
2018-09-18T09:08:10.417Z,25.15
2018-09-18T09:10:39.706Z,24.72
2018-09-18T09:13:08.511Z,25.19
2018-09-18T09:15:37.433Z,25.21
2018-09-18T09:18:06.414Z,25.05
2018-09-18T09:20:35.836Z,25.54
2018-09-18T09:23:04.950Z,25.64
2018-09-18T09:25:34.047Z,25.82
2018-09-18T09:28:02.981Z,26.07
2018-09-18T09:30:31.730Z,26.44
2018-09-18T09:33:00.902Z,26.00
2018-09-18T09:35:29.746Z,26.15
2018-09-18T09:37:58.582Z,26.02
2018-09-18T09:40:27.500Z,26.38
2018-09-18T09:42:56.336Z,26.89
2018-09-18T09:45:25.162Z,26.27
2018-09-18T09:47:54.316Z,26.50
2018-09-18T09:50:23.111Z,26.28
2018-09-18T09:52:51.944Z,25.94
2018-09-18T09:55:21.120Z,25.96
2018-09-18T09:57:49.929Z,25.78
2018-09-18T10:00:23.878Z,26.02
2018-09-18T10:02:52.702Z,26.25
2018-09-18T10:05:21.540Z,26.35
2018-09-18T10:07:50.742Z,26.35
2018-09-18T10:10:19.553Z,26.78
2018-09-18T10:12:48.405Z,26.53
2018-09-18T10:15:17.278Z,26.80
2018-09-18T10:17:46.213Z,27.50
2018-09-18T10:20:15.003Z,27.18
2018-09-18T10:22:43.867Z,27.57
2018-09-18T10:25:12.797Z,27.08
2018-09-18T10:27:41.575Z,27.13
2018-09-18T10:30:10.849Z,27.67
2018-09-18T10:32:39.793Z,27.81
2018-09-18T10:35:08.624Z,27.53
2018-09-18T10:37:37.819Z,27.51
2018-09-18T10:40:06.749Z,27.42
2018-09-18T10:42:35.644Z,27.49
2018-09-18T10:45:06.366Z,27.66
2018-09-18T10:47:35.314Z,27.81
2018-09-18T10:50:04.225Z,28.16
2018-09-18T10:52:33.494Z,28.71
2018-09-18T10:55:02.388Z,27.97
2018-09-18T10:57:31.297Z,27.84
2018-09-18T11:00:00.314Z,28.15
2018-09-18T11:02:29.167Z,28.06
2018-09-18T11:04:58.036Z,28.16
2018-09-18T11:07:27.197Z,28.26
2018-09-18T11:09:56.017Z,28.67
2018-09-18T11:12:24.896Z,28.81
2018-09-18T11:14:54.070Z,28.15
2018-09-18T11:17:22.881Z,28.03
2018-09-18T11:19:51.868Z,28.76
2018-09-18T11:22:22.377Z,28.97
2018-09-18T11:24:51.412Z,29.13
2018-09-18T11:27:20.360Z,28.62
2018-09-18T11:29:51.207Z,28.27
2018-09-18T11:32:20.101Z,28.78
2018-09-18T11:34:49.081Z,28.61
2018-09-18T11:37:18.329Z,28.50
2018-09-18T11:39:47.202Z,28.35
2018-09-18T11:42:16.154Z,28.49
2018-09-18T11:44:45.365Z,29.50
2018-09-18T11:47:14.218Z,29.35
2018-09-18T11:49:42.995Z,29.33
2018-09-18T11:52:12.185Z,29.20
2018-09-18T11:54:41.156Z,29.18
2018-09-18T11:57:10.062Z,29.79
2018-09-18T11:59:38.991Z,29.60
2018-09-18T12:02:07.869Z,29.52
2018-09-18T12:04:36.766Z,29.42
2018-09-18T12:07:05.927Z,29.23
2018-09-18T12:09:34.842Z,29.92
2018-09-18T12:12:03.670Z,29.45
2018-09-18T12:14:32.639Z,28.81
2018-09-18T12:17:01.567Z,29.88
2018-09-18T12:19:30.316Z,29.61
2018-09-18T12:21:59.519Z,29.77
2018-09-18T12:24:28.301Z,29.62
2018-09-18T12:26:57.204Z,29.71
2018-09-18T12:29:26.400Z,29.30
2018-09-18T12:31:55.220Z,30.00
2018-09-18T12:34:24.111Z,29.05
2018-09-18T12:36:53.489Z,28.75
2018-09-18T12:39:22.321Z,29.65
2018-09-18T12:41:51.202Z,30.32
2018-09-18T12:44:20.282Z,30.29
2018-09-18T12:46:49.107Z,28.83
2018-09-18T12:49:18.019Z,28.90
2018-09-18T12:51:47.105Z,28.42
2018-09-18T12:54:16.139Z,28.17
2018-09-18T12:56:45.302Z,29.47
2018-09-18T12:59:14.126Z,29.75
2018-09-18T13:01:43.938Z,29.43
2018-09-18T13:04:12.772Z,29.53
2018-09-18T13:06:41.975Z,29.62
2018-09-18T13:09:12.736Z,29.47
2018-09-18T13:11:41.577Z,29.22
2018-09-18T13:14:10.848Z,29.76
2018-09-18T13:16:39.645Z,29.21
2018-09-18T13:19:08.477Z,29.48
2018-09-18T13:21:37.365Z,29.22
2018-09-18T13:24:06.230Z,28.49
2018-09-18T13:26:35.066Z,28.11
2018-09-18T13:29:03.975Z,28.42
2018-09-18T13:31:32.813Z,28.60
2018-09-18T13:34:01.666Z,28.51
2018-09-18T13:36:30.676Z,29.18
2018-09-18T13:38:59.611Z,29.49
2018-09-18T13:41:28.418Z,28.60
2018-09-18T13:43:57.352Z,28.78
2018-09-18T13:46:26.313Z,29.60
2018-09-18T13:48:55.118Z,29.69
2018-09-18T13:51:24.095Z,30.00
2018-09-18T13:53:52.974Z,29.68
2018-09-18T13:56:22.347Z,29.54
2018-09-18T13:58:51.210Z,29.49
2018-09-18T14:01:20.230Z,28.93
2018-09-18T14:03:49.060Z,28.96
2018-09-18T14:06:18.200Z,29.61
2018-09-18T14:08:47.032Z,29.32
2018-09-18T14:11:15.934Z,29.12
2018-09-18T14:13:45.215Z,29.15
2018-09-18T14:16:14.069Z,29.19
2018-09-18T14:18:42.953Z,29.46
2018-09-18T14:21:11.804Z,29.26
2018-09-18T14:23:40.694Z,29.26
2018-09-18T14:26:09.598Z,29.13
2018-09-18T14:28:38.534Z,28.92
2018-09-18T14:31:07.480Z,29.34
2018-09-18T14:33:36.293Z,29.24
2018-09-18T14:36:05.511Z,28.63
2018-09-18T14:38:34.358Z,28.49
2018-09-18T14:41:03.203Z,28.21
2018-09-18T14:43:32.687Z,28.71
2018-09-18T14:46:01.570Z,29.32
2018-09-18T14:48:30.427Z,29.39
2018-09-18T14:50:59.748Z,28.31
2018-09-18T14:53:29.017Z,27.97
2018-09-18T14:55:58.486Z,28.28
2018-09-18T14:58:27.656Z,28.78
2018-09-18T15:00:56.524Z,29.05
2018-09-18T15:03:25.362Z,29.07
2018-09-18T15:05:54.264Z,28.99
2018-09-18T15:08:23.123Z,29.49
2018-09-18T15:10:52.559Z,29.51
2018-09-18T15:13:21.482Z,29.57
2018-09-18T15:15:51.010Z,28.84
2018-09-18T15:18:19.864Z,27.82
2018-09-18T15:20:49.098Z,27.68
2018-09-18T15:23:18.107Z,27.28
2018-09-18T15:25:47.055Z,27.35
2018-09-18T15:28:16.376Z,27.43
2018-09-18T15:30:45.285Z,27.49
2018-09-18T15:33:14.210Z,27.12
2018-09-18T15:35:43.455Z,26.99
2018-09-18T15:38:12.329Z,26.85
2018-09-18T15:40:41.160Z,26.30
2018-09-18T15:43:10.493Z,26.91
2018-09-18T15:45:39.348Z,26.91
2018-09-18T15:48:08.169Z,27.00
2018-09-18T15:50:37.470Z,26.95
2018-09-18T15:53:06.297Z,26.88
2018-09-18T15:55:35.186Z,26.96
2018-09-18T15:58:04.520Z,26.92
2018-09-18T16:00:33.377Z,26.80
2018-09-18T16:03:02.321Z,26.80
2018-09-18T16:05:32.035Z,26.63
2018-09-18T16:08:00.946Z,26.61
2018-09-18T16:10:29.792Z,26.67
2018-09-18T16:12:59.000Z,26.79
2018-09-18T16:15:27.926Z,26.63
2018-09-18T16:17:56.789Z,26.44
2018-09-18T16:20:26.040Z,26.26
2018-09-18T16:22:54.924Z,26.26
2018-09-18T16:25:23.794Z,26.19
2018-09-18T16:27:52.739Z,26.16
2018-09-18T16:30:21.639Z,26.10
2018-09-18T16:32:50.842Z,26.07
2018-09-18T16:35:20.001Z,26.00
2018-09-18T16:37:48.925Z,25.91
2018-09-18T16:40:18.829Z,25.82
2018-09-18T16:42:47.688Z,25.74
2018-09-18T16:45:16.656Z,25.74
2018-09-18T16:47:45.577Z,25.76
2018-09-18T16:50:14.779Z,25.71
2018-09-18T16:52:43.725Z,25.84
2018-09-18T16:55:12.731Z,25.85
2018-09-18T16:57:42.019Z,25.68
2018-09-18T17:00:10.898Z,25.59
2018-09-18T17:02:39.906Z,25.69
2018-09-18T17:05:08.737Z,25.60
2018-09-18T17:07:37.660Z,25.57
2018-09-18T17:10:06.595Z,25.55
2018-09-18T17:12:35.693Z,25.55
2018-09-18T17:15:04.532Z,25.45
2018-09-18T17:17:33.409Z,25.40
2018-09-18T17:20:02.290Z,25.35
2018-09-18T17:22:31.177Z,25.35
2018-09-18T17:24:59.967Z,25.33
2018-09-18T17:27:29.132Z,25.37
2018-09-18T17:29:57.998Z,25.22
2018-09-18T17:32:26.875Z,24.98
2018-09-18T17:34:55.818Z,25.09
2018-09-18T17:37:24.635Z,24.95
2018-09-18T17:39:53.492Z,24.96
2018-09-18T17:42:22.717Z,24.92
2018-09-18T17:44:51.584Z,24.99
2018-09-18T17:47:20.450Z,25.08
2018-09-18T17:49:49.730Z,25.37
2018-09-18T17:52:18.545Z,25.31
2018-09-18T17:54:47.413Z,25.25
2018-09-18T17:57:16.325Z,25.30
2018-09-18T17:59:45.311Z,25.15
2018-09-18T18:02:14.172Z,25.22
2018-09-18T18:04:43.117Z,25.11
2018-09-18T18:07:12.035Z,24.96
2018-09-18T18:09:40.893Z,25.11
2018-09-18T18:12:11.110Z,24.67
2018-09-18T18:14:39.967Z,24.39
2018-09-18T18:17:08.853Z,24.10
2018-09-18T18:19:38.085Z,23.99
2018-09-18T18:22:07.312Z,23.99
2018-09-18T18:24:36.214Z,23.96
2018-09-18T18:27:05.502Z,23.87
2018-09-18T18:29:34.417Z,23.98
2018-09-18T18:32:03.318Z,23.78
2018-09-18T18:34:32.265Z,23.71
2018-09-18T18:37:01.223Z,23.35
2018-09-18T18:39:30.153Z,23.22
2018-09-18T18:41:59.396Z,23.23
2018-09-18T18:44:28.610Z,23.01
2018-09-18T18:46:57.620Z,23.38
2018-09-18T18:49:26.594Z,23.23
2018-09-18T18:51:55.429Z,22.86
2018-09-18T18:54:24.342Z,22.46
2018-09-18T18:56:53.399Z,22.31
2018-09-18T18:59:22.223Z,22.26
2018-09-18T19:01:51.313Z,22.29
2018-09-18T19:04:20.400Z,22.33
2018-09-18T19:06:49.409Z,22.22
2018-09-18T19:09:19.076Z,21.92
2018-09-18T19:11:48.472Z,21.72
2018-09-18T19:14:17.389Z,21.69
2018-09-18T19:16:46.325Z,21.47
2018-09-18T19:19:15.318Z,21.37
2018-09-18T19:21:44.218Z,21.33
2018-09-18T19:24:13.761Z,21.41
2018-09-18T19:26:42.738Z,21.27
2018-09-18T19:29:11.633Z,21.27
2018-09-18T19:31:40.518Z,21.82
2018-09-18T19:34:09.851Z,21.36
2018-09-18T19:36:38.756Z,21.14
2018-09-18T19:39:09.676Z,21.06
2018-09-18T19:41:38.536Z,20.83
2018-09-18T19:44:07.800Z,20.74
2018-09-18T19:46:36.837Z,20.65
2018-09-18T19:49:05.883Z,20.48
2018-09-18T19:51:34.810Z,20.39
2018-09-18T19:54:03.708Z,20.30
2018-09-18T19:56:33.000Z,20.27
2018-09-18T19:59:01.910Z,20.18
2018-09-18T20:01:31.098Z,20.11
2018-09-18T20:04:00.261Z,20.16
2018-09-18T20:06:29.114Z,19.92
2018-09-18T20:08:57.980Z,19.91
2018-09-18T20:11:27.179Z,19.86
2018-09-18T20:13:56.833Z,19.91
2018-09-18T20:16:26.259Z,19.96
2018-09-18T20:18:55.152Z,20.05
2018-09-18T20:21:24.014Z,20.03
2018-09-18T20:23:52.838Z,19.91
2018-09-18T20:26:21.635Z,19.89
2018-09-18T20:28:50.578Z,19.89
2018-09-18T20:31:20.655Z,19.80
2018-09-18T20:33:50.787Z,19.75
2018-09-18T20:36:20.173Z,19.71
2018-09-18T20:38:52.382Z,19.78
2018-09-18T20:41:24.549Z,19.87
2018-09-18T20:43:53.985Z,19.70
2018-09-18T20:46:25.456Z,19.82
2018-09-18T20:49:00.661Z,19.76
2018-09-18T20:51:30.552Z,19.64
2018-09-18T20:54:01.650Z,19.66
2018-09-18T20:56:35.387Z,19.57
2018-09-18T20:59:04.603Z,19.46
2018-09-18T21:01:39.288Z,19.37
2018-09-18T21:04:13.368Z,19.44
2018-09-18T21:06:47.285Z,19.34
2018-09-18T21:09:20.863Z,19.33
2018-09-18T21:11:59.921Z,19.29
2018-09-18T21:14:29.381Z,19.25
2018-09-18T21:16:58.643Z,19.18
2018-09-18T21:19:27.755Z,19.10
2018-09-18T21:21:56.843Z,19.03
2018-09-18T21:24:35.153Z,19.12
2018-09-18T21:27:05.548Z,19.10
2018-09-18T21:29:34.687Z,18.99
2018-09-18T21:32:03.779Z,18.93
2018-09-18T21:34:33.111Z,18.90
2018-09-18T21:37:03.975Z,18.91
2018-09-18T21:39:34.288Z,18.91
2018-09-18T21:42:03.374Z,18.90
2018-09-18T21:44:33.348Z,18.97
2018-09-18T21:47:06.515Z,18.85
2018-09-18T21:49:36.194Z,18.96
2018-09-18T21:54:45.197Z,18.96
2018-09-18T21:59:53.901Z,18.75
2018-09-18T22:02:23.907Z,18.65
2018-09-18T22:04:52.993Z,18.54
2018-09-18T22:07:22.454Z,18.77
2018-09-18T22:09:52.453Z,18.63
2018-09-18T22:12:23.700Z,18.60
2018-09-18T22:14:53.549Z,18.58
2018-09-18T22:17:23.371Z,18.63
2018-09-18T22:19:53.129Z,18.62
2018-09-18T22:22:23.278Z,18.55
2018-09-18T22:24:54.199Z,18.62
2018-09-18T22:27:23.581Z,18.62
2018-09-18T22:32:35.958Z,18.78
2018-09-18T22:35:05.084Z,18.79
2018-09-18T22:37:39.507Z,18.66
2018-09-18T22:40:08.583Z,18.73
2018-09-18T22:42:37.900Z,18.87
2018-09-18T22:45:07.101Z,18.86
2018-09-18T22:47:37.251Z,19.03
2018-09-18T22:50:06.453Z,19.03
2018-09-18T22:52:43.458Z,18.90
2018-09-18T22:55:12.485Z,18.92
2018-09-18T22:57:41.512Z,18.81
2018-09-18T23:00:11.308Z,18.81
2018-09-18T23:02:40.468Z,19.03
2018-09-18T23:05:10.359Z,19.21
2018-09-18T23:07:43.793Z,18.92
2018-09-18T23:10:12.796Z,18.82
2018-09-18T23:12:41.837Z,18.83
2018-09-18T23:15:11.717Z,18.87
2018-09-18T23:17:40.792Z,18.67
2018-09-18T23:20:09.835Z,18.55
2018-09-18T23:22:39.172Z,18.57
2018-09-18T23:25:08.399Z,18.71
2018-09-18T23:27:40.593Z,18.65
2018-09-18T23:30:13.482Z,18.51
2018-09-18T23:32:43.507Z,18.34
2018-09-18T23:35:12.557Z,18.17
2018-09-18T23:37:43.316Z,18.02
2018-09-18T23:40:12.598Z,18.01
2018-09-18T23:42:41.640Z,17.93
2018-09-18T23:45:10.692Z,17.98
2018-09-18T23:47:44.656Z,18.00
2018-09-18T23:50:13.742Z,17.82
2018-09-18T23:52:47.357Z,17.91
2018-09-18T23:55:16.356Z,17.77
2018-09-18T23:57:46.094Z,17.77
